sensor_id;sensor_type;location;lat;lon;timestamp;pressure;altitude;pressure_sealevel;temperature;humidity
36788;BME280;22738;45.560;9.434;2023-03-21T00:01:44;100185.25;;;8.86;100.00
36788;BME280;22738;45.560;9.434;2023-03-21T00:08:25;100181.88;;;8.69;100.00
36788;BME280;22738;45.560;9.434;2023-03-21T00:15:12;100171.38;;;8.54;100.00
36788;BME280;22738;45.560;9.434;2023-03-21T00:21:53;100163.94;;;8.48;100.00
36788;BME280;22738;45.560;9.434;2023-03-21T00:28:37;100168.16;;;8.15;100.00
36788;BME280;22738;45.560;9.434;2023-03-21T00:35:18;100157.44;;;8.23;100.00
36788;BME280;22738;45.560;9.434;2023-03-21T00:41:59;100150.69;;;8.20;100.00
36788;BME280;22738;45.560;9.434;2023-03-21T00:48:40;100146.28;;;8.22;100.00
36788;BME280;22738;45.560;9.434;2023-03-21T00:55:22;100144.34;;;8.27;100.00
36788;BME280;22738;45.560;9.434;2023-03-21T01:02:03;100124.53;;;8.28;100.00
36788;BME280;22738;45.560;9.434;2023-03-21T01:08:47;100124.09;;;8.18;100.00
36788;BME280;22738;45.560;9.434;2023-03-21T01:15:28;100123.13;;;8.21;100.00
36788;BME280;22738;45.560;9.434;2023-03-21T01:22:10;100107.25;;;8.11;100.00
36788;BME280;22738;45.560;9.434;2023-03-21T01:28:52;100103.59;;;7.98;100.00
36788;BME280;22738;45.560;9.434;2023-03-21T01:35:35;100103.19;;;7.71;100.00
36788;BME280;22738;45.560;9.434;2023-03-21T01:42:17;100101.28;;;7.75;100.00
36788;BME280;22738;45.560;9.434;2023-03-21T01:49:01;100087.19;;;7.82;100.00
36788;BME280;22738;45.560;9.434;2023-03-21T01:55:42;100081.41;;;7.77;100.00
36788;BME280;22738;45.560;9.434;2023-03-21T02:02:34;100073.66;;;7.77;100.00
36788;BME280;22738;45.560;9.434;2023-03-21T02:09:34;100070.94;;;7.80;100.00
36788;BME280;22738;45.560;9.434;2023-03-21T02:16:47;100069.75;;;7.70;100.00
36788;BME280;22738;45.560;9.434;2023-03-21T02:30:43;100052.38;;;7.38;100.00
36788;BME280;22738;45.560;9.434;2023-03-21T02:37:51;100049.50;;;7.44;100.00
36788;BME280;22738;45.560;9.434;2023-03-21T02:51:27;100043.16;;;7.51;100.00
36788;BME280;22738;45.560;9.434;2023-03-21T02:58:14;100035.34;;;7.16;100.00
36788;BME280;22738;45.560;9.434;2023-03-21T03:05:14;100034.34;;;7.55;100.00
36788;BME280;22738;45.560;9.434;2023-03-21T03:12:11;100035.88;;;7.59;100.00
36788;BME280;22738;45.560;9.434;2023-03-21T03:18:59;100037.53;;;7.60;100.00
36788;BME280;22738;45.560;9.434;2023-03-21T03:32:35;100031.47;;;7.25;100.00
36788;BME280;22738;45.560;9.434;2023-03-21T03:39:20;100028.66;;;7.12;100.00
36788;BME280;22738;45.560;9.434;2023-03-21T03:46:17;100022.63;;;7.31;100.00
36788;BME280;22738;45.560;9.434;2023-03-21T03:53:06;100029.00;;;7.24;100.00
36788;BME280;22738;45.560;9.434;2023-03-21T03:59:48;100020.16;;;7.10;100.00
36788;BME280;22738;45.560;9.434;2023-03-21T04:06:39;100022.75;;;7.10;100.00
36788;BME280;22738;45.560;9.434;2023-03-21T04:13:23;100019.53;;;7.05;100.00
36788;BME280;22738;45.560;9.434;2023-03-21T04:20:18;100023.31;;;6.98;100.00
36788;BME280;22738;45.560;9.434;2023-03-21T04:26:59;100019.66;;;7.02;100.00
36788;BME280;22738;45.560;9.434;2023-03-21T04:33:52;100011.31;;;6.97;100.00
36788;BME280;22738;45.560;9.434;2023-03-21T04:40:33;100012.53;;;6.72;100.00
36788;BME280;22738;45.560;9.434;2023-03-21T04:47:15;100011.03;;;6.66;100.00
36788;BME280;22738;45.560;9.434;2023-03-21T04:53:57;100027.88;;;6.73;100.00
36788;BME280;22738;45.560;9.434;2023-03-21T05:00:39;100024.25;;;6.77;100.00
36788;BME280;22738;45.560;9.434;2023-03-21T05:07:20;100032.41;;;6.87;100.00
36788;BME280;22738;45.560;9.434;2023-03-21T05:14:08;100030.69;;;6.87;100.00
36788;BME280;22738;45.560;9.434;2023-03-21T05:20:52;100036.63;;;6.51;100.00
36788;BME280;22738;45.560;9.434;2023-03-21T05:27:34;100032.81;;;6.59;100.00
36788;BME280;22738;45.560;9.434;2023-03-21T05:34:19;100033.91;;;6.92;100.00
36788;BME280;22738;45.560;9.434;2023-03-21T05:41:01;100026.13;;;7.11;100.00
36788;BME280;22738;45.560;9.434;2023-03-21T05:47:42;100027.69;;;6.96;100.00
36788;BME280;22738;45.560;9.434;2023-03-21T05:54:25;100036.06;;;7.37;100.00
36788;BME280;22738;45.560;9.434;2023-03-21T06:01:07;100040.44;;;7.54;100.00
36788;BME280;22738;45.560;9.434;2023-03-21T06:07:50;100031.50;;;7.78;100.00
36788;BME280;22738;45.560;9.434;2023-03-21T06:14:31;100038.88;;;7.85;100.00
36788;BME280;22738;45.560;9.434;2023-03-21T06:21:35;100045.09;;;8.33;100.00
36788;BME280;22738;45.560;9.434;2023-03-21T06:28:17;100038.66;;;8.73;100.00
36788;BME280;22738;45.560;9.434;2023-03-21T06:34:58;100037.13;;;9.17;100.00
36788;BME280;22738;45.560;9.434;2023-03-21T06:41:39;100043.72;;;9.38;100.00
36788;BME280;22738;45.560;9.434;2023-03-21T06:48:21;100044.44;;;9.85;100.00
36788;BME280;22738;45.560;9.434;2023-03-21T06:55:04;100050.31;;;10.61;100.00
36788;BME280;22738;45.560;9.434;2023-03-21T07:01:46;100051.16;;;11.30;100.00
36788;BME280;22738;45.560;9.434;2023-03-21T07:08:28;100055.78;;;15.02;100.00
36788;BME280;22738;45.560;9.434;2023-03-21T07:15:09;100060.97;;;17.31;100.00
36788;BME280;22738;45.560;9.434;2023-03-21T07:21:55;100071.06;;;18.96;100.00
36788;BME280;22738;45.560;9.434;2023-03-21T07:28:36;100069.47;;;20.11;98.36
36788;BME280;22738;45.560;9.434;2023-03-21T07:35:18;100067.78;;;20.79;88.39
36788;BME280;22738;45.560;9.434;2023-03-21T07:42:00;100071.97;;;21.89;78.72
36788;BME280;22738;45.560;9.434;2023-03-21T07:48:50;100074.19;;;22.89;70.04
36788;BME280;22738;45.560;9.434;2023-03-21T07:55:31;100077.47;;;22.91;66.23
36788;BME280;22738;45.560;9.434;2023-03-21T08:02:16;100081.03;;;23.98;60.89
36788;BME280;22738;45.560;9.434;2023-03-21T08:08:58;100080.78;;;24.30;55.99
36788;BME280;22738;45.560;9.434;2023-03-21T08:15:39;100090.56;;;24.82;56.02
36788;BME280;22738;45.560;9.434;2023-03-21T08:22:21;100090.97;;;24.56;56.36
36788;BME280;22738;45.560;9.434;2023-03-21T08:29:03;100077.47;;;23.60;61.77
36788;BME280;22738;45.560;9.434;2023-03-21T08:35:44;100070.81;;;23.03;65.02
36788;BME280;22738;45.560;9.434;2023-03-21T08:42:26;100072.91;;;21.64;78.43
36788;BME280;22738;45.560;9.434;2023-03-21T08:49:07;100064.47;;;20.69;93.67
36788;BME280;22738;45.560;9.434;2023-03-21T08:55:48;100057.31;;;20.35;100.00
36788;BME280;22738;45.560;9.434;2023-03-21T09:02:29;100060.03;;;20.69;94.86
36788;BME280;22738;45.560;9.434;2023-03-21T09:09:10;100060.22;;;20.76;87.41
36788;BME280;22738;45.560;9.434;2023-03-21T09:15:53;100057.41;;;20.69;87.33
36788;BME280;22738;45.560;9.434;2023-03-21T09:22:34;100064.34;;;20.78;86.02
36788;BME280;22738;45.560;9.434;2023-03-21T09:29:16;100074.16;;;21.02;85.32
36788;BME280;22738;45.560;9.434;2023-03-21T09:35:59;100071.47;;;21.19;77.06
36788;BME280;22738;45.560;9.434;2023-03-21T09:43:05;100070.00;;;21.17;89.09
36788;BME280;22738;45.560;9.434;2023-03-21T09:49:57;100063.91;;;20.91;82.18
36788;BME280;22738;45.560;9.434;2023-03-21T09:56:39;100069.78;;;21.10;78.30
36788;BME280;22738;45.560;9.434;2023-03-21T10:03:24;100061.97;;;21.35;86.55
36788;BME280;22738;45.560;9.434;2023-03-21T10:10:21;100061.03;;;21.60;80.45
36788;BME280;22738;45.560;9.434;2023-03-21T10:24:05;100050.16;;;21.71;87.75
36788;BME280;22738;45.560;9.434;2023-03-21T10:30:58;100049.50;;;21.69;90.11
36788;BME280;22738;45.560;9.434;2023-03-21T10:37:40;100056.72;;;21.59;84.68
36788;BME280;22738;45.560;9.434;2023-03-21T10:44:28;100045.38;;;21.74;77.81
36788;BME280;22738;45.560;9.434;2023-03-21T10:51:16;100042.59;;;21.76;82.93
36788;BME280;22738;45.560;9.434;2023-03-21T10:58:06;100043.22;;;21.70;71.96
36788;BME280;22738;45.560;9.434;2023-03-21T11:04:48;100032.31;;;21.65;75.50
36788;BME280;22738;45.560;9.434;2023-03-21T11:11:36;100040.22;;;21.41;80.17
36788;BME280;22738;45.560;9.434;2023-03-21T11:18:21;100034.63;;;21.44;77.36
36788;BME280;22738;45.560;9.434;2023-03-21T11:25:06;100030.59;;;21.15;84.53
36788;BME280;22738;45.560;9.434;2023-03-21T11:31:49;100017.97;;;21.01;83.73
36788;BME280;22738;45.560;9.434;2023-03-21T11:38:39;100015.16;;;20.87;87.50
36788;BME280;22738;45.560;9.434;2023-03-21T11:45:23;100015.72;;;21.06;79.62
36788;BME280;22738;45.560;9.434;2023-03-21T11:52:13;99993.84;;;21.22;73.66
36788;BME280;22738;45.560;9.434;2023-03-21T12:06:25;99973.53;;;21.06;76.38
36788;BME280;22738;45.560;9.434;2023-03-21T12:13:39;99969.25;;;20.55;62.74
36788;BME280;22738;45.560;9.434;2023-03-21T12:20:33;99950.06;;;20.79;75.35
36788;BME280;22738;45.560;9.434;2023-03-21T12:48:14;99899.28;;;20.61;66.67
36788;BME280;22738;45.560;9.434;2023-03-21T12:55:02;99892.44;;;20.92;65.84
36788;BME280;22738;45.560;9.434;2023-03-21T13:01:47;99886.84;;;20.95;70.52
36788;BME280;22738;45.560;9.434;2023-03-21T13:08:41;99872.94;;;20.61;70.03
36788;BME280;22738;45.560;9.434;2023-03-21T13:22:30;99859.66;;;20.95;72.95
36788;BME280;22738;45.560;9.434;2023-03-21T13:29:25;99850.16;;;21.18;69.35
36788;BME280;22738;45.560;9.434;2023-03-21T13:36:08;99849.03;;;21.12;71.72
36788;BME280;22738;45.560;9.434;2023-03-21T13:42:55;99837.97;;;21.09;67.39
36788;BME280;22738;45.560;9.434;2023-03-21T13:49:39;99832.50;;;20.94;63.39
36788;BME280;22738;45.560;9.434;2023-03-21T13:56:21;99823.63;;;21.11;66.29
36788;BME280;22738;45.560;9.434;2023-03-21T14:03:08;99814.06;;;21.35;62.59
36788;BME280;22738;45.560;9.434;2023-03-21T14:09:53;99799.22;;;21.42;61.42
36788;BME280;22738;45.560;9.434;2023-03-21T14:16:35;99804.50;;;21.25;62.66
36788;BME280;22738;45.560;9.434;2023-03-21T14:23:17;99786.03;;;21.01;61.70
36788;BME280;22738;45.560;9.434;2023-03-21T14:29:59;99780.91;;;20.59;64.63
36788;BME280;22738;45.560;9.434;2023-03-21T14:36:41;99773.38;;;20.81;65.88
36788;BME280;22738;45.560;9.434;2023-03-21T14:43:23;99763.16;;;20.94;66.11
36788;BME280;22738;45.560;9.434;2023-03-21T14:50:08;99758.69;;;21.02;64.59
36788;BME280;22738;45.560;9.434;2023-03-21T14:56:53;99753.78;;;21.07;63.89
36788;BME280;22738;45.560;9.434;2023-03-21T15:03:35;99754.09;;;20.88;64.36
36788;BME280;22738;45.560;9.434;2023-03-21T15:10:17;99740.91;;;20.88;67.42
36788;BME280;22738;45.560;9.434;2023-03-21T15:16:59;99735.66;;;20.80;65.48
36788;BME280;22738;45.560;9.434;2023-03-21T15:23:44;99734.66;;;20.73;66.22
36788;BME280;22738;45.560;9.434;2023-03-21T15:30:28;99726.53;;;20.26;73.69
36788;BME280;22738;45.560;9.434;2023-03-21T15:37:16;99724.66;;;20.03;72.02
36788;BME280;22738;45.560;9.434;2023-03-21T15:50:47;99728.56;;;19.82;75.11
36788;BME280;22738;45.560;9.434;2023-03-21T15:57:31;99725.25;;;19.80;75.66
36788;BME280;22738;45.560;9.434;2023-03-21T16:04:14;99718.63;;;19.68;79.45
36788;BME280;22738;45.560;9.434;2023-03-21T16:11:06;99711.72;;;19.67;79.29
36788;BME280;22738;45.560;9.434;2023-03-21T16:17:50;99707.00;;;19.45;83.34
36788;BME280;22738;45.560;9.434;2023-03-21T16:24:32;99708.09;;;19.35;84.34
36788;BME280;22738;45.560;9.434;2023-03-21T16:31:18;99698.03;;;19.30;82.63
36788;BME280;22738;45.560;9.434;2023-03-21T16:37:59;99689.06;;;19.15;84.62
36788;BME280;22738;45.560;9.434;2023-03-21T16:44:40;99692.34;;;19.09;83.27
36788;BME280;22738;45.560;9.434;2023-03-21T16:51:24;99703.97;;;18.81;90.73
36788;BME280;22738;45.560;9.434;2023-03-21T16:58:10;99706.63;;;18.63;95.26
36788;BME280;22738;45.560;9.434;2023-03-21T17:04:54;99702.06;;;18.47;96.98
36788;BME280;22738;45.560;9.434;2023-03-21T17:11:35;99707.44;;;18.28;100.00
36788;BME280;22738;45.560;9.434;2023-03-21T17:18:17;99709.28;;;18.01;100.00
36788;BME280;22738;45.560;9.434;2023-03-21T17:24:58;99711.09;;;17.73;100.00
36788;BME280;22738;45.560;9.434;2023-03-21T17:31:39;99715.03;;;17.50;100.00
36788;BME280;22738;45.560;9.434;2023-03-21T17:38:20;99716.00;;;17.22;100.00
36788;BME280;22738;45.560;9.434;2023-03-21T17:45:02;99721.53;;;16.99;100.00
36788;BME280;22738;45.560;9.434;2023-03-21T17:51:43;99715.53;;;16.70;100.00
36788;BME280;22738;45.560;9.434;2023-03-21T17:58:26;99701.72;;;16.49;100.00
36788;BME280;22738;45.560;9.434;2023-03-21T18:05:08;99711.53;;;16.28;100.00
36788;BME280;22738;45.560;9.434;2023-03-21T18:11:49;99720.72;;;16.03;100.00
36788;BME280;22738;45.560;9.434;2023-03-21T18:18:30;99716.66;;;15.80;100.00
36788;BME280;22738;45.560;9.434;2023-03-21T18:25:13;99717.53;;;15.50;100.00
36788;BME280;22738;45.560;9.434;2023-03-21T18:31:56;99713.22;;;15.19;100.00
36788;BME280;22738;45.560;9.434;2023-03-21T18:38:40;99723.75;;;15.08;100.00
36788;BME280;22738;45.560;9.434;2023-03-21T18:45:21;99730.31;;;14.82;100.00
36788;BME280;22738;45.560;9.434;2023-03-21T18:52:05;99737.19;;;14.83;100.00
36788;BME280;22738;45.560;9.434;2023-03-21T18:58:48;99742.03;;;14.67;100.00
36788;BME280;22738;45.560;9.434;2023-03-21T19:05:29;99747.28;;;14.56;100.00
36788;BME280;22738;45.560;9.434;2023-03-21T19:12:10;99755.41;;;14.42;100.00
36788;BME280;22738;45.560;9.434;2023-03-21T19:18:51;99757.56;;;14.25;100.00
36788;BME280;22738;45.560;9.434;2023-03-21T19:25:32;99762.66;;;14.16;100.00
36788;BME280;22738;45.560;9.434;2023-03-21T19:32:13;99760.22;;;14.03;100.00
36788;BME280;22738;45.560;9.434;2023-03-21T19:38:54;99759.41;;;13.92;100.00
36788;BME280;22738;45.560;9.434;2023-03-21T19:45:36;99768.03;;;13.81;100.00
36788;BME280;22738;45.560;9.434;2023-03-21T19:52:17;99767.69;;;13.75;100.00
36788;BME280;22738;45.560;9.434;2023-03-21T19:59:00;99768.53;;;13.64;100.00
36788;BME280;22738;45.560;9.434;2023-03-21T20:05:42;99764.03;;;13.55;100.00
36788;BME280;22738;45.560;9.434;2023-03-21T20:12:24;99765.31;;;13.49;100.00
36788;BME280;22738;45.560;9.434;2023-03-21T20:19:06;99774.09;;;13.37;100.00
36788;BME280;22738;45.560;9.434;2023-03-21T20:25:49;99779.38;;;13.25;100.00
36788;BME280;22738;45.560;9.434;2023-03-21T20:32:30;99778.47;;;13.37;100.00
36788;BME280;22738;45.560;9.434;2023-03-21T20:39:12;99780.59;;;13.43;100.00
36788;BME280;22738;45.560;9.434;2023-03-21T20:46:04;99773.25;;;13.37;100.00
36788;BME280;22738;45.560;9.434;2023-03-21T20:52:46;99784.38;;;13.50;100.00
36788;BME280;22738;45.560;9.434;2023-03-21T20:59:27;99781.28;;;13.45;100.00
36788;BME280;22738;45.560;9.434;2023-03-21T21:06:12;99791.34;;;13.38;100.00
36788;BME280;22738;45.560;9.434;2023-03-21T21:12:53;99788.50;;;13.30;100.00
36788;BME280;22738;45.560;9.434;2023-03-21T21:19:34;99793.94;;;13.27;100.00
36788;BME280;22738;45.560;9.434;2023-03-21T21:26:15;99793.78;;;13.18;100.00
36788;BME280;22738;45.560;9.434;2023-03-21T21:32:57;99789.44;;;13.18;100.00
36788;BME280;22738;45.560;9.434;2023-03-21T21:39:40;99784.06;;;13.09;100.00
36788;BME280;22738;45.560;9.434;2023-03-21T21:46:22;99790.94;;;13.10;100.00
36788;BME280;22738;45.560;9.434;2023-03-21T21:53:03;99789.78;;;13.14;100.00
36788;BME280;22738;45.560;9.434;2023-03-21T21:59:45;99791.78;;;12.86;100.00
36788;BME280;22738;45.560;9.434;2023-03-21T22:06:27;99784.31;;;13.06;100.00
36788;BME280;22738;45.560;9.434;2023-03-21T22:13:08;99793.34;;;13.24;100.00
36788;BME280;22738;45.560;9.434;2023-03-21T22:19:49;99777.59;;;13.14;100.00
36788;BME280;22738;45.560;9.434;2023-03-21T22:26:30;99783.97;;;12.86;100.00
36788;BME280;22738;45.560;9.434;2023-03-21T22:33:11;99789.66;;;12.80;100.00
36788;BME280;22738;45.560;9.434;2023-03-21T22:39:52;99786.56;;;12.75;100.00
36788;BME280;22738;45.560;9.434;2023-03-21T22:46:33;99785.28;;;12.81;100.00
36788;BME280;22738;45.560;9.434;2023-03-21T22:53:14;99787.22;;;12.66;100.00
36788;BME280;22738;45.560;9.434;2023-03-21T22:59:55;99792.59;;;12.52;100.00
36788;BME280;22738;45.560;9.434;2023-03-21T23:06:36;99788.06;;;12.43;100.00
36788;BME280;22738;45.560;9.434;2023-03-21T23:13:18;99794.41;;;12.39;100.00
36788;BME280;22738;45.560;9.434;2023-03-21T23:19:59;99794.41;;;12.39;100.00
36788;BME280;22738;45.560;9.434;2023-03-21T23:26:41;99784.03;;;12.39;100.00
36788;BME280;22738;45.560;9.434;2023-03-21T23:33:22;99790.91;;;12.40;100.00
36788;BME280;22738;45.560;9.434;2023-03-21T23:40:03;99800.53;;;12.38;100.00
36788;BME280;22738;45.560;9.434;2023-03-21T23:46:46;99794.88;;;12.33;100.00
36788;BME280;22738;45.560;9.434;2023-03-21T23:53:27;99796.50;;;12.34;100.00
